Time;durP1;ratioP1;P1;durP2;ratioP2;P2;SDS_P1;SDS_P2;PMS_P1;PMS_P2;Temp;Humidity;BMP_temperature;BMP_pressure;BME280_temperature;BME280_humidity;BME280_pressure;Samples;Min_cycle;Max_cycle;Signal;HPM_P1;HPM_P2
2022/12/20 00:00:44;;;;;;;7.00;3.50;;;;;;;;;;5031216;28;20288;-77
2022/12/20 00:03:09;;;;;;;4.90;4.13;;;;;;;;;;5031927;28;20181;-77
2022/12/20 00:05:35;;;;;;;5.23;3.70;;;;;;;;;;5033401;28;20190;-77
2022/12/20 00:08:00;;;;;;;4.80;2.80;;;;;;;;;;5033386;28;20253;-77
2022/12/20 00:10:25;;;;;;;4.50;3.47;;;;;;;;;;5032112;28;20682;-77
2022/12/20 00:12:51;;;;;;;5.07;3.30;;;;;;;;;;5031635;28;20182;-77
2022/12/20 00:15:16;;;;;;;4.27;3.27;;;;;;;;;;5033886;28;20256;-76
2022/12/20 00:17:41;;;;;;;7.83;4.43;;;;;;;;;;5027767;28;20190;-77
2022/12/20 00:20:07;;;;;;;3.70;2.83;;;;;;;;;;5030921;28;20214;-77
2022/12/20 00:22:32;;;;;;;5.07;3.27;;;;;;;;;;5030790;28;20209;-77
2022/12/20 00:24:57;;;;;;;4.83;3.20;;;;;;;;;;5033126;28;20187;-77
2022/12/20 00:27:22;;;;;;;4.97;2.80;;;;;;;;;;5030383;28;20558;-77
2022/12/20 00:29:47;;;;;;;5.27;3.70;;;;;;;;;;5026220;28;20190;-77
2022/12/20 00:32:13;;;;;;;4.47;3.20;;;;;;;;;;5030939;28;20178;-77
2022/12/20 00:34:38;;;;;;;4.73;3.30;;;;;;;;;;5033290;28;20261;-77
2022/12/20 00:37:03;;;;;;;5.77;2.83;;;;;;;;;;5024840;28;20581;-77
2022/12/20 00:39:28;;;;;;;3.80;2.60;;;;;;;;;;5032174;28;20643;-77
2022/12/20 00:41:54;;;;;;;3.57;2.93;;;;;;;;;;5030634;28;20675;-77
2022/12/20 00:44:19;;;;;;;3.50;2.93;;;;;;;;;;5032315;28;20186;-77
2022/12/20 00:46:44;;;;;;;4.93;3.63;;;;;;;;;;5032091;28;20201;-77
2022/12/20 00:49:09;;;;;;;5.77;3.23;;;;;;;;;;5032409;28;20178;-77
2022/12/20 00:51:35;;;;;;;4.30;3.13;;;;;;;;;;5027774;28;20309;-77
2022/12/20 00:54:00;;;;;;;6.23;3.20;;;;;;;;;;5026436;28;20178;-77
2022/12/20 00:56:25;;;;;;;3.63;3.27;;;;;;;;;;5031511;28;20233;-77
2022/12/20 00:58:52;;;;;;;4.40;3.43;;;;;;;;;;5032244;28;20289;-77
2022/12/20 01:01:22;;;;;;;6.53;3.23;;;;;;;;;;5031531;28;20209;-77
2022/12/20 01:03:47;;;;;;;5.37;3.20;;;;;;;;;;5031151;28;20227;-77
2022/12/20 01:06:12;;;;;;;6.47;3.13;;;;;;;;;;5031896;28;20199;-77
2022/12/20 01:08:38;;;;;;;4.00;3.10;;;;;;;;;;5033944;28;20179;-77
2022/12/20 01:11:03;;;;;;;5.00;3.30;;;;;;;;;;5032132;28;20186;-78
2022/12/20 01:13:29;;;;;;;4.53;2.90;;;;;;;;;;5030302;28;20209;-78
2022/12/20 01:15:54;;;;;;;4.53;3.53;;;;;;;;;;5033128;28;20217;-78
2022/12/20 01:18:19;;;;;;;4.87;3.73;;;;;;;;;;5032469;28;20233;-78
2022/12/20 01:20:44;;;;;;;4.90;3.07;;;;;;;;;;5032114;28;20205;-79
2022/12/20 01:23:10;;;;;;;6.03;3.53;;;;;;;;;;5026412;28;20167;-79
2022/12/20 01:25:35;;;;;;;3.97;2.97;;;;;;;;;;5034942;28;20646;-78
2022/12/20 01:28:00;;;;;;;4.90;3.40;;;;;;;;;;5032872;28;20186;-78
2022/12/20 01:30:25;;;;;;;4.40;3.27;;;;;;;;;;5032760;28;20216;-78
2022/12/20 01:32:50;;;;;;;4.53;2.90;;;;;;;;;;5036831;28;20224;-78
2022/12/20 01:35:15;;;;;;;4.83;3.23;;;;;;;;;;5030570;28;20492;-78
2022/12/20 01:37:41;;;;;;;6.80;3.40;;;;;;;;;;5030943;28;20184;-78
2022/12/20 01:40:06;;;;;;;4.50;3.33;;;;;;;;;;5029834;28;20212;-78
2022/12/20 01:42:31;;;;;;;4.37;3.73;;;;;;;;;;5031495;28;20663;-78
2022/12/20 01:44:58;;;;;;;4.67;3.57;;;;;;;;;;5028834;28;20194;-78
2022/12/20 01:47:24;;;;;;;8.70;4.63;;;;;;;;;;5031384;28;20179;-78
2022/12/20 01:49:51;;;;;;;6.67;4.00;;;;;;;;;;5037869;28;20185;-78
2022/12/20 01:52:23;;;;;;;6.63;3.93;;;;;;;;;;5035277;28;20206;-79
2022/12/20 01:54:54;;;;;;;4.57;3.43;;;;;;;;;;5028577;28;20586;-78
2022/12/20 01:57:21;;;;;;;5.50;3.47;;;;;;;;;;5032281;28;20696;-78
2022/12/20 01:59:47;;;;;;;4.53;3.73;;;;;;;;;;5030695;28;20249;-79
2022/12/20 02:02:12;;;;;;;4.50;3.60;;;;;;;;;;5030665;28;20595;-78
2022/12/20 02:04:38;;;;;;;4.50;3.63;;;;;;;;;;5030151;28;20174;-78
2022/12/20 02:07:03;;;;;;;5.17;3.40;;;;;;;;;;5031533;28;20178;-79
2022/12/20 02:09:29;;;;;;;7.10;3.63;;;;;;;;;;5030375;28;20182;-78
2022/12/20 02:12:13;;;;;;;5.13;3.83;;;;;;;;;;5031121;28;20644;-79
2022/12/20 02:14:53;;;;;;;5.17;3.53;;;;;;;;;;5031481;28;20173;-78
2022/12/20 02:17:25;;;;;;;6.67;3.43;;;;;;;;;;5031937;28;20188;-78
2022/12/20 02:20:28;;;;;;;4.30;3.50;;;;;;;;;;5029658;28;20206;-79
2022/12/20 02:22:59;;;;;;;6.27;3.43;;;;;;;;;;4959316;28;20299;-78
2022/12/20 02:25:34;;;;;;;6.30;4.30;;;;;;;;;;4964580;28;20228;-78
2022/12/20 02:28:02;;;;;;;4.90;3.70;;;;;;;;;;5004952;28;20188;-78
2022/12/20 02:30:30;;;;;;;5.60;3.57;;;;;;;;;;5031796;28;20236;-79
2022/12/20 02:32:58;;;;;;;5.17;3.70;;;;;;;;;;5029749;28;20182;-79
2022/12/20 02:35:25;;;;;;;5.03;3.70;;;;;;;;;;5028419;28;20218;-78
2022/12/20 02:37:54;;;;;;;6.50;3.87;;;;;;;;;;5031236;28;20170;-79
2022/12/20 02:40:23;;;;;;;7.30;3.73;;;;;;;;;;5029406;28;20205;-78
2022/12/20 02:42:50;;;;;;;5.37;3.80;;;;;;;;;;5029352;28;20178;-78
2022/12/20 02:45:16;;;;;;;5.07;3.60;;;;;;;;;;5028711;28;20198;-79
2022/12/20 02:47:41;;;;;;;7.00;3.53;;;;;;;;;;5031028;28;20173;-79
2022/12/20 02:50:08;;;;;;;6.33;3.97;;;;;;;;;;5031104;28;20175;-78
2022/12/20 02:52:34;;;;;;;5.13;3.80;;;;;;;;;;5027252;28;20619;-79
2022/12/20 02:54:59;;;;;;;4.00;3.27;;;;;;;;;;5030828;28;20202;-78
2022/12/20 02:57:28;;;;;;;5.53;3.97;;;;;;;;;;5030144;28;20189;-79
2022/12/20 02:59:56;;;;;;;3.57;3.00;;;;;;;;;;5028686;28;20268;-78
2022/12/20 03:02:22;;;;;;;5.10;3.13;;;;;;;;;;5023030;28;20207;-79
2022/12/20 03:04:48;;;;;;;5.07;3.50;;;;;;;;;;5028933;28;20170;-78
2022/12/20 03:07:13;;;;;;;5.23;3.80;;;;;;;;;;5028253;28;20663;-79
2022/12/20 03:09:40;;;;;;;4.70;3.20;;;;;;;;;;5031956;28;20221;-78
2022/12/20 03:12:06;;;;;;;5.73;3.50;;;;;;;;;;5034489;28;20193;-79
2022/12/20 03:14:31;;;;;;;4.03;2.97;;;;;;;;;;5034440;28;20182;-78
2022/12/20 03:16:57;;;;;;;6.53;3.70;;;;;;;;;;5034268;28;20224;-78
2022/12/20 03:19:22;;;;;;;6.33;3.70;;;;;;;;;;5032997;28;20206;-79
2022/12/20 03:21:47;;;;;;;4.83;3.17;;;;;;;;;;5033798;28;20186;-78
2022/12/20 03:24:13;;;;;;;4.47;3.00;;;;;;;;;;5033252;28;20304;-78
2022/12/20 03:26:39;;;;;;;3.97;3.23;;;;;;;;;;5033055;28;20571;-79
2022/12/20 03:29:04;;;;;;;5.00;3.10;;;;;;;;;;5034313;28;20266;-79
2022/12/20 03:31:29;;;;;;;6.77;3.30;;;;;;;;;;5032359;28;20201;-78
2022/12/20 03:33:55;;;;;;;7.60;3.50;;;;;;;;;;5033768;28;20277;-78
2022/12/20 03:36:22;;;;;;;3.90;3.50;;;;;;;;;;5033295;28;20672;-78
2022/12/20 03:38:48;;;;;;;3.93;3.13;;;;;;;;;;5034962;28;20308;-79
2022/12/20 03:41:13;;;;;;;4.47;2.73;;;;;;;;;;5033137;28;20190;-79
2022/12/20 03:43:38;;;;;;;7.90;3.30;;;;;;;;;;5033090;28;20174;-79
2022/12/20 03:46:04;;;;;;;8.77;4.67;;;;;;;;;;5033771;28;20198;-78
2022/12/20 03:48:29;;;;;;;5.47;3.30;;;;;;;;;;5036407;28;20190;-79
2022/12/20 03:50:54;;;;;;;5.63;3.60;;;;;;;;;;5035846;28;20178;-79
2022/12/20 03:53:19;;;;;;;5.30;3.43;;;;;;;;;;5034907;28;20193;-79
2022/12/20 03:55:44;;;;;;;6.33;3.40;;;;;;;;;;5031149;28;20201;-79
2022/12/20 03:58:10;;;;;;;3.83;3.20;;;;;;;;;;5037672;28;20563;-79
2022/12/20 04:00:35;;;;;;;4.00;3.20;;;;;;;;;;5031069;28;20301;-78
2022/12/20 04:03:00;;;;;;;5.53;3.10;;;;;;;;;;5031582;28;20166;-78
2022/12/20 04:05:25;;;;;;;4.03;3.37;;;;;;;;;;5032440;28;20198;-78
2022/12/20 04:07:50;;;;;;;4.00;3.27;;;;;;;;;;5039341;28;20521;-79
2022/12/20 04:10:16;;;;;;;6.40;3.27;;;;;;;;;;5033199;28;20202;-79
2022/12/20 04:12:41;;;;;;;5.73;2.83;;;;;;;;;;5039460;28;20209;-79
2022/12/20 04:15:06;;;;;;;3.57;2.90;;;;;;;;;;5038728;28;20194;-79
2022/12/20 04:17:32;;;;;;;3.97;3.20;;;;;;;;;;5041321;28;20186;-78
2022/12/20 04:19:57;;;;;;;4.13;2.83;;;;;;;;;;5034388;28;20198;-78
2022/12/20 04:22:22;;;;;;;6.10;3.97;;;;;;;;;;5034154;28;20181;-78
2022/12/20 04:24:47;;;;;;;5.20;3.17;;;;;;;;;;5036071;28;20178;-78
2022/12/20 04:27:13;;;;;;;4.93;3.20;;;;;;;;;;5036354;28;20592;-78
2022/12/20 04:29:38;;;;;;;4.43;2.97;;;;;;;;;;5032206;28;20182;-79
2022/12/20 04:32:03;;;;;;;6.97;3.20;;;;;;;;;;5030702;28;20186;-79
2022/12/20 04:34:28;;;;;;;4.07;3.17;;;;;;;;;;5031557;28;20278;-79
2022/12/20 04:36:54;;;;;;;4.47;2.80;;;;;;;;;;5033421;28;20571;-79
2022/12/20 04:39:19;;;;;;;4.47;3.00;;;;;;;;;;5033429;28;20214;-79
2022/12/20 04:41:44;;;;;;;5.00;3.40;;;;;;;;;;5032856;28;20211;-79
2022/12/20 04:44:09;;;;;;;7.17;3.20;;;;;;;;;;5032463;28;20260;-79
2022/12/20 04:46:34;;;;;;;5.83;2.90;;;;;;;;;;5036493;28;20198;-79
2022/12/20 04:49:00;;;;;;;3.43;2.73;;;;;;;;;;5030354;28;20628;-79
2022/12/20 04:51:26;;;;;;;5.43;3.63;;;;;;;;;;5031938;28;20227;-79
2022/12/20 04:53:51;;;;;;;4.33;3.17;;;;;;;;;;5035923;28;20198;-80
2022/12/20 04:56:27;;;;;;;7.13;3.57;;;;;;;;;;5031192;28;20256;-79
2022/12/20 04:58:53;;;;;;;5.00;3.40;;;;;;;;;;5032917;28;20745;-80
2022/12/20 05:01:18;;;;;;;4.93;3.80;;;;;;;;;;5030229;28;20432;-78
2022/12/20 05:03:43;;;;;;;5.93;4.10;;;;;;;;;;5023782;28;20236;-78
2022/12/20 05:06:09;;;;;;;6.90;4.50;;;;;;;;;;5030060;28;20206;-79
2022/12/20 05:08:34;;;;;;;5.77;3.57;;;;;;;;;;5033119;28;20189;-79
2022/12/20 05:11:00;;;;;;;7.20;3.17;;;;;;;;;;5030459;28;20259;-78
2022/12/20 05:13:25;;;;;;;6.57;3.27;;;;;;;;;;5032004;28;20184;-80
2022/12/20 05:15:51;;;;;;;7.67;4.07;;;;;;;;;;5030994;28;20221;-78
2022/12/20 05:18:16;;;;;;;4.10;3.10;;;;;;;;;;5034654;28;20223;-78
2022/12/20 05:20:41;;;;;;;6.33;3.40;;;;;;;;;;5029864;28;20190;-78
2022/12/20 05:28:26;;;;;;;7.97;3.30;;;;;;;;;;5031655;28;20182;-78
2022/12/20 05:30:52;;;;;;;5.40;3.40;;;;;;;;;;5031209;28;20181;-77
2022/12/20 05:33:17;;;;;;;5.47;3.83;;;;;;;;;;5035881;28;20212;-78
2022/12/20 05:35:42;;;;;;;5.00;3.37;;;;;;;;;;5033000;28;20207;-78
2022/12/20 05:38:07;;;;;;;4.50;3.50;;;;;;;;;;5035534;28;20174;-78
2022/12/20 05:40:32;;;;;;;5.20;4.10;;;;;;;;;;5031081;28;20213;-78
2022/12/20 05:42:58;;;;;;;5.00;3.43;;;;;;;;;;5025672;28;20644;-80
2022/12/20 05:45:23;;;;;;;5.83;3.47;;;;;;;;;;5030689;28;20190;-79
2022/12/20 05:47:48;;;;;;;4.97;3.33;;;;;;;;;;5032353;28;20225;-78
2022/12/20 05:50:16;;;;;;;8.83;3.67;;;;;;;;;;5030969;28;20185;-80
2022/12/20 05:52:41;;;;;;;5.63;4.40;;;;;;;;;;5029211;28;20232;-79
2022/12/20 05:55:06;;;;;;;6.20;3.40;;;;;;;;;;5031554;28;20201;-79
2022/12/20 05:57:31;;;;;;;6.37;4.03;;;;;;;;;;5031147;28;20197;-78
2022/12/20 05:59:57;;;;;;;4.67;3.47;;;;;;;;;;5031898;28;20304;-80
2022/12/20 06:02:22;;;;;;;6.70;3.90;;;;;;;;;;5031094;28;20665;-80
2022/12/20 06:04:47;;;;;;;3.90;3.20;;;;;;;;;;5029427;28;20193;-79
2022/12/20 06:07:12;;;;;;;3.93;3.40;;;;;;;;;;5030045;28;20228;-79
2022/12/20 06:09:37;;;;;;;7.17;3.53;;;;;;;;;;5028414;28;20178;-80
2022/12/20 06:12:03;;;;;;;6.07;3.43;;;;;;;;;;5030305;28;20182;-80
2022/12/20 06:14:29;;;;;;;6.63;3.67;;;;;;;;;;5033215;28;20533;-80
2022/12/20 06:16:54;;;;;;;4.13;2.87;;;;;;;;;;5029837;28;20206;-79
2022/12/20 06:19:19;;;;;;;3.70;3.07;;;;;;;;;;5031693;28;20202;-79
2022/12/20 06:21:44;;;;;;;3.03;2.53;;;;;;;;;;5030588;28;20657;-79
2022/12/20 06:24:10;;;;;;;4.80;3.40;;;;;;;;;;5031200;28;20608;-79
2022/12/20 06:26:35;;;;;;;5.13;3.10;;;;;;;;;;5036732;28;20293;-79
2022/12/20 06:29:06;;;;;;;4.87;3.17;;;;;;;;;;5030925;28;20608;-79
2022/12/20 06:31:31;;;;;;;3.37;2.60;;;;;;;;;;5031536;28;20197;-80
2022/12/20 06:33:57;;;;;;;3.23;2.33;;;;;;;;;;5037885;28;20656;-80
2022/12/20 06:36:22;;;;;;;3.57;2.33;;;;;;;;;;5032508;28;20210;-80
2022/12/20 06:38:47;;;;;;;3.33;2.60;;;;;;;;;;5024174;28;20707;-80
2022/12/20 06:41:12;;;;;;;4.03;2.70;;;;;;;;;;5026674;28;20178;-80
2022/12/20 06:43:37;;;;;;;3.90;2.33;;;;;;;;;;5031274;28;20189;-81
2022/12/20 06:46:03;;;;;;;4.03;2.83;;;;;;;;;;5033574;28;20292;-79
2022/12/20 06:48:28;;;;;;;6.03;2.40;;;;;;;;;;5031180;28;20178;-80
2022/12/20 06:50:54;;;;;;;4.57;2.40;;;;;;;;;;5029039;28;20213;-81
2022/12/20 06:53:19;;;;;;;5.10;1.93;;;;;;;;;;5027296;28;20241;-81
2022/12/20 06:55:46;;;;;;;6.23;2.40;;;;;;;;;;5030617;28;20340;-80
2022/12/20 06:58:12;;;;;;;5.23;3.27;;;;;;;;;;5032497;28;20251;-78
2022/12/20 07:00:37;;;;;;;3.67;2.30;;;;;;;;;;5028290;28;20214;-80
2022/12/20 07:03:03;;;;;;;4.03;2.57;;;;;;;;;;5024636;28;20178;-80
2022/12/20 07:05:28;;;;;;;4.20;2.20;;;;;;;;;;5031089;28;20241;-79
2022/12/20 07:07:53;;;;;;;2.70;2.20;;;;;;;;;;5029920;28;20274;-79
2022/12/20 07:10:18;;;;;;;3.73;2.53;;;;;;;;;;5029739;28;20229;-80
2022/12/20 07:12:44;;;;;;;3.67;2.20;;;;;;;;;;5030142;28;20272;-80
2022/12/20 07:15:09;;;;;;;3.37;2.53;;;;;;;;;;5034694;28;20482;-79
2022/12/20 07:17:34;;;;;;;4.20;2.27;;;;;;;;;;5026747;28;20644;-81
2022/12/20 07:19:59;;;;;;;4.67;2.63;;;;;;;;;;5027325;28;20778;-79
2022/12/20 07:22:25;;;;;;;3.50;2.37;;;;;;;;;;5030376;28;20178;-80
2022/12/20 07:24:50;;;;;;;4.63;2.37;;;;;;;;;;5030181;28;20190;-79
2022/12/20 07:27:16;;;;;;;2.87;2.23;;;;;;;;;;5029986;28;20185;-80
2022/12/20 07:29:41;;;;;;;4.00;2.43;;;;;;;;;;5029978;28;20174;-80
2022/12/20 07:32:07;;;;;;;4.50;1.83;;;;;;;;;;5033995;28;20174;-80
2022/12/20 07:34:32;;;;;;;2.83;1.93;;;;;;;;;;5031274;28;20530;-79
2022/12/20 07:36:58;;;;;;;4.93;2.30;;;;;;;;;;5025278;28;20289;-80
2022/12/20 07:39:23;;;;;;;3.27;2.30;;;;;;;;;;5028016;28;20281;-80
2022/12/20 07:41:51;;;;;;;2.03;1.83;;;;;;;;;;5029578;28;20653;-80
2022/12/20 07:44:17;;;;;;;3.10;2.33;;;;;;;;;;5030321;28;20178;-80
2022/12/20 07:46:42;;;;;;;4.03;2.63;;;;;;;;;;5031045;28;20190;-78
2022/12/20 07:49:08;;;;;;;3.87;2.43;;;;;;;;;;5029029;28;20179;-78
2022/12/20 07:51:38;;;;;;;3.00;2.30;;;;;;;;;;5029632;28;20328;-78
2022/12/20 07:54:07;;;;;;;3.80;2.60;;;;;;;;;;5024651;28;20186;-78
2022/12/20 07:56:35;;;;;;;3.57;2.40;;;;;;;;;;5029974;28;20669;-81
2022/12/20 07:59:00;;;;;;;3.23;2.40;;;;;;;;;;5033799;28;20687;-80
2022/12/20 08:01:26;;;;;;;4.00;2.40;;;;;;;;;;5032024;28;20178;-80
2022/12/20 08:03:54;;;;;;;3.93;2.33;;;;;;;;;;5032744;28;20198;-79
2022/12/20 08:06:19;;;;;;;3.10;2.90;;;;;;;;;;5031235;28;20237;-79
2022/12/20 08:08:47;;;;;;;5.80;2.93;;;;;;;;;;5033869;28;20198;-79
2022/12/20 08:11:12;;;;;;;4.50;2.67;;;;;;;;;;5033249;28;20691;-79
2022/12/20 08:13:38;;;;;;;3.97;2.37;;;;;;;;;;5026695;28;20216;-79
2022/12/20 08:16:04;;;;;;;4.57;2.70;;;;;;;;;;5033795;28;20202;-79
2022/12/20 08:18:29;;;;;;;4.30;2.60;;;;;;;;;;5032406;28;20217;-79
2022/12/20 08:20:54;;;;;;;4.53;3.97;;;;;;;;;;5031882;28;20175;-80
2022/12/20 08:23:19;;;;;;;4.60;2.67;;;;;;;;;;5033623;28;20182;-79
2022/12/20 08:25:45;;;;;;;4.10;2.90;;;;;;;;;;5033952;28;20190;-79
2022/12/20 08:28:10;;;;;;;3.43;2.30;;;;;;;;;;5033435;28;20188;-79
2022/12/20 08:30:35;;;;;;;4.10;2.37;;;;;;;;;;5029870;28;20238;-79
2022/12/20 08:33:01;;;;;;;5.00;2.60;;;;;;;;;;5027189;28;20648;-79
2022/12/20 08:35:26;;;;;;;3.90;2.50;;;;;;;;;;5032004;28;20198;-79
2022/12/20 08:37:51;;;;;;;3.87;2.20;;;;;;;;;;5032230;28;20178;-80
2022/12/20 08:40:17;;;;;;;4.13;2.63;;;;;;;;;;5034061;28;20233;-79
2022/12/20 08:42:43;;;;;;;3.93;2.37;;;;;;;;;;5025149;28;20595;-80
2022/12/20 08:45:08;;;;;;;4.20;2.43;;;;;;;;;;5033272;28;20273;-80
2022/12/20 08:47:33;;;;;;;4.63;2.50;;;;;;;;;;5032566;28;20662;-79
2022/12/20 08:49:59;;;;;;;3.80;2.80;;;;;;;;;;5033754;28;20174;-79
2022/12/20 08:52:25;;;;;;;4.37;2.30;;;;;;;;;;5030677;28;20213;-79
2022/12/20 08:54:50;;;;;;;4.50;2.50;;;;;;;;;;5032762;28;20198;-79
2022/12/20 08:57:16;;;;;;;3.07;2.27;;;;;;;;;;5033781;28;20170;-79
2022/12/20 08:59:41;;;;;;;3.63;2.37;;;;;;;;;;5045677;28;20198;-80
2022/12/20 09:02:06;;;;;;;3.37;2.63;;;;;;;;;;5049575;28;20190;-79
2022/12/20 09:04:32;;;;;;;3.93;2.50;;;;;;;;;;5054194;28;20158;-79
2022/12/20 09:06:57;;;;;;;4.93;2.90;;;;;;;;;;5054588;28;20155;-80
2022/12/20 09:09:22;;;;;;;3.10;2.33;;;;;;;;;;5056925;28;20217;-80
2022/12/20 09:11:47;;;;;;;4.77;2.60;;;;;;;;;;5056704;28;20178;-80
2022/12/20 09:14:13;;;;;;;3.13;2.13;;;;;;;;;;5055095;28;20186;-79
2022/12/20 09:16:38;;;;;;;5.30;2.57;;;;;;;;;;5056751;28;20197;-80
2022/12/20 09:19:04;;;;;;;5.67;2.57;;;;;;;;;;5055693;28;20178;-80
2022/12/20 09:21:29;;;;;;;3.73;2.43;;;;;;;;;;5056424;28;20185;-81
2022/12/20 09:23:55;;;;;;;7.13;2.70;;;;;;;;;;5057001;28;20155;-79
2022/12/20 09:26:21;;;;;;;7.63;2.40;;;;;;;;;;5056413;28;20202;-80
2022/12/20 09:28:47;;;;;;;3.60;3.00;;;;;;;;;;5055079;28;20210;-80
2022/12/20 09:31:14;;;;;;;4.57;2.80;;;;;;;;;;5030634;28;20175;-80
2022/12/20 09:33:39;;;;;;;4.50;2.63;;;;;;;;;;5032503;28;20178;-80
2022/12/20 09:36:06;;;;;;;3.83;2.33;;;;;;;;;;5028015;28;20294;-81
2022/12/20 09:38:31;;;;;;;6.17;3.40;;;;;;;;;;5031489;28;20182;-81
2022/12/20 09:41:06;;;;;;;3.97;3.03;;;;;;;;;;5033388;28;20170;-81
2022/12/20 09:43:32;;;;;;;4.47;2.30;;;;;;;;;;5034671;28;20674;-81
2022/12/20 09:45:59;;;;;;;4.83;2.73;;;;;;;;;;5033136;28;20198;-81
2022/12/20 09:48:27;;;;;;;6.17;3.77;;;;;;;;;;5031012;28;20174;-80
2022/12/20 09:50:52;;;;;;;4.40;3.20;;;;;;;;;;5031614;28;20181;-81
2022/12/20 09:53:18;;;;;;;5.73;3.80;;;;;;;;;;5028951;28;20174;-81
2022/12/20 09:55:52;;;;;;;3.70;3.27;;;;;;;;;;5021744;28;20234;-80
2022/12/20 09:58:30;;;;;;;3.73;2.43;;;;;;;;;;5032539;28;20178;-81
2022/12/20 10:00:56;;;;;;;4.87;2.97;;;;;;;;;;5033157;28;20269;-79
2022/12/20 10:03:24;;;;;;;3.83;2.90;;;;;;;;;;5032463;28;20228;-81
2022/12/20 10:05:52;;;;;;;3.97;2.97;;;;;;;;;;5032382;28;20225;-81
2022/12/20 10:08:23;;;;;;;4.17;2.67;;;;;;;;;;5033358;28;20178;-81
2022/12/20 10:10:48;;;;;;;8.00;3.10;;;;;;;;;;5028008;28;20189;-81
2022/12/20 10:13:14;;;;;;;6.67;3.23;;;;;;;;;;5025448;28;20190;-81
2022/12/20 10:15:44;;;;;;;4.90;3.00;;;;;;;;;;5033176;28;20198;-81
2022/12/20 10:18:45;;;;;;;6.50;3.40;;;;;;;;;;5035682;28;20215;-80
2022/12/20 10:21:11;;;;;;;8.27;3.00;;;;;;;;;;4949608;29;20201;-80
2022/12/20 10:23:42;;;;;;;6.10;3.40;;;;;;;;;;5027133;28;20214;-80
2022/12/20 10:26:09;;;;;;;5.03;3.10;;;;;;;;;;5034153;28;20202;-80
2022/12/20 10:28:35;;;;;;;7.97;3.47;;;;;;;;;;5032836;28;20328;-81
2022/12/20 10:31:01;;;;;;;6.50;2.70;;;;;;;;;;5030789;28;21260;-81
2022/12/20 10:33:27;;;;;;;5.53;3.30;;;;;;;;;;5026279;28;20191;-81
2022/12/20 10:35:53;;;;;;;3.33;3.00;;;;;;;;;;5026732;28;20229;-81
2022/12/20 10:38:19;;;;;;;5.07;3.17;;;;;;;;;;5030142;28;20186;-81
2022/12/20 10:40:59;;;;;;;3.80;3.40;;;;;;;;;;5031082;28;20209;-82
2022/12/20 10:43:24;;;;;;;4.50;3.60;;;;;;;;;;5031520;28;20546;-81
2022/12/20 10:45:58;;;;;;;7.43;3.30;;;;;;;;;;5031621;28;20198;-81
2022/12/20 10:48:38;;;;;;;8.68;3.67;;;;;;;;;;5030345;28;20174;-81
2022/12/20 10:51:09;;;;;;;7.77;3.40;;;;;;;;;;5023085;28;20874;-81
2022/12/20 10:53:35;;;;;;;8.20;4.13;;;;;;;;;;5024578;28;20185;-81
2022/12/20 10:56:23;;;;;;;4.18;3.72;;;;;;;;;;5035020;28;20275;-81
2022/12/20 10:58:55;;;;;;;6.10;3.73;;;;;;;;;;5030697;28;20863;-81
2022/12/20 11:01:21;;;;;;;5.57;3.50;;;;;;;;;;5031805;28;20197;-80
2022/12/20 11:03:53;;;;;;;11.10;5.20;;;;;;;;;;5028245;28;20182;-80
2022/12/20 11:06:19;;;;;;;5.73;3.90;;;;;;;;;;5030539;28;20194;-80
2022/12/20 11:08:45;;;;;;;5.00;4.27;;;;;;;;;;5032342;28;20220;-81
2022/12/20 11:11:21;;;;;;;5.43;4.33;;;;;;;;;;5024395;28;20182;-81
2022/12/20 11:13:47;;;;;;;6.23;3.90;;;;;;;;;;5026139;28;20243;-81
2022/12/20 11:16:24;;;;;;;9.57;4.17;;;;;;;;;;5028269;28;20571;-81
2022/12/20 11:18:50;;;;;;;5.60;3.80;;;;;;;;;;5026032;28;20202;-81
2022/12/20 11:21:21;;;;;;;5.20;3.90;;;;;;;;;;5030852;28;20181;-80
2022/12/20 11:23:47;;;;;;;6.50;3.80;;;;;;;;;;5031560;28;20175;-81
2022/12/20 11:26:24;;;;;;;5.80;4.10;;;;;;;;;;5031199;28;20194;-81
2022/12/20 11:28:58;;;;;;;6.27;4.30;;;;;;;;;;5026815;28;20185;-82
2022/12/20 11:31:36;;;;;;;5.73;3.90;;;;;;;;;;5033445;28;20259;-81
2022/12/20 11:34:09;;;;;;;4.67;3.67;;;;;;;;;;5033334;28;20214;-81
2022/12/20 11:36:43;;;;;;;5.53;4.23;;;;;;;;;;5030033;28;20638;-81
2022/12/20 11:39:14;;;;;;;6.27;4.27;;;;;;;;;;5033184;28;20208;-81
2022/12/20 11:41:47;;;;;;;7.87;4.57;;;;;;;;;;5034025;28;20178;-81
2022/12/20 11:44:32;;;;;;;5.83;4.83;;;;;;;;;;5032304;28;20572;-81
2022/12/20 11:46:57;;;;;;;5.73;3.90;;;;;;;;;;5032789;28;20174;-81
2022/12/20 11:49:32;;;;;;;4.93;4.20;;;;;;;;;;5036598;28;20178;-81
2022/12/20 11:52:04;;;;;;;5.37;4.47;;;;;;;;;;5034494;28;20178;-80
2022/12/20 11:54:37;;;;;;;7.37;4.10;;;;;;;;;;5035693;28;20594;-80
2022/12/20 11:57:18;;;;;;;6.37;4.57;;;;;;;;;;5035302;28;20182;-80
2022/12/20 11:59:46;;;;;;;6.20;4.47;;;;;;;;;;5028074;28;20194;-80
2022/12/20 12:02:17;;;;;;;6.03;4.40;;;;;;;;;;5035824;28;20179;-80
2022/12/20 12:04:45;;;;;;;5.83;4.50;;;;;;;;;;5035513;28;20178;-80
2022/12/20 12:07:22;;;;;;;5.03;4.53;;;;;;;;;;5036544;28;20236;-80
2022/12/20 12:09:51;;;;;;;6.87;4.90;;;;;;;;;;5028787;28;20648;-80
2022/12/20 12:12:19;;;;;;;6.13;4.27;;;;;;;;;;5034124;28;20210;-81
2022/12/20 12:14:50;;;;;;;7.07;5.13;;;;;;;;;;5034698;28;20189;-81
2022/12/20 12:17:28;;;;;;;5.60;5.00;;;;;;;;;;5036240;28;20240;-81
2022/12/20 12:19:56;;;;;;;6.67;4.47;;;;;;;;;;5034824;28;20205;-80
2022/12/20 12:22:23;;;;;;;7.77;4.70;;;;;;;;;;5034879;28;20265;-80
2022/12/20 12:24:51;;;;;;;6.27;5.03;;;;;;;;;;5034640;28;20273;-81
2022/12/20 12:27:24;;;;;;;5.93;4.70;;;;;;;;;;5035264;28;20179;-80
2022/12/20 12:29:53;;;;;;;5.77;4.73;;;;;;;;;;5036054;28;20186;-81
2022/12/20 12:32:18;;;;;;;6.00;4.77;;;;;;;;;;5035027;28;20236;-80
2022/12/20 12:34:52;;;;;;;5.77;5.17;;;;;;;;;;5034979;28;20178;-81
2022/12/20 12:37:20;;;;;;;8.60;5.27;;;;;;;;;;5036322;28;20564;-81
2022/12/20 12:39:46;;;;;;;6.47;4.97;;;;;;;;;;5035714;28;20201;-81
2022/12/20 12:42:17;;;;;;;8.07;5.47;;;;;;;;;;5033981;28;20604;-80
2022/12/20 12:44:42;;;;;;;6.40;4.50;;;;;;;;;;5035858;28;20178;-80
2022/12/20 12:47:18;;;;;;;6.30;4.70;;;;;;;;;;5034789;28;20178;-80
2022/12/20 12:49:47;;;;;;;6.73;5.00;;;;;;;;;;5031351;28;20550;-80
2022/12/20 12:52:26;;;;;;;7.37;4.70;;;;;;;;;;5034369;28;20186;-81
2022/12/20 12:54:51;;;;;;;6.97;5.00;;;;;;;;;;5026967;28;20197;-79
2022/12/20 12:57:17;;;;;;;6.30;5.30;;;;;;;;;;5033611;28;20189;-80
2022/12/20 12:59:46;;;;;;;6.20;5.27;;;;;;;;;;5034047;28;20198;-81
2022/12/20 13:02:14;;;;;;;5.63;4.83;;;;;;;;;;5032337;28;20222;-80
2022/12/20 13:04:59;;;;;;;10.10;5.30;;;;;;;;;;5031773;28;20182;-80
2022/12/20 13:07:25;;;;;;;6.87;5.33;;;;;;;;;;5032070;28;20257;-80
2022/12/20 13:09:52;;;;;;;6.87;5.53;;;;;;;;;;5032033;28;20273;-80
2022/12/20 13:12:35;;;;;;;8.10;5.63;;;;;;;;;;5036221;28;20319;-81
2022/12/20 13:15:01;;;;;;;6.87;6.17;;;;;;;;;;5039019;28;20194;-80
2022/12/20 13:17:26;;;;;;;7.30;5.83;;;;;;;;;;5028616;28;20269;-81
2022/12/20 13:19:52;;;;;;;8.17;5.60;;;;;;;;;;5033474;28;20344;-79
2022/12/20 13:22:22;;;;;;;7.13;5.70;;;;;;;;;;5031933;28;20675;-79
2022/12/20 13:24:55;;;;;;;6.57;5.97;;;;;;;;;;5035678;28;20214;-79
2022/12/20 13:27:23;;;;;;;9.97;6.33;;;;;;;;;;5033045;28;20174;-80
2022/12/20 13:29:54;;;;;;;6.43;5.20;;;;;;;;;;5033647;28;20178;-80
2022/12/20 13:32:38;;;;;;;8.80;6.53;;;;;;;;;;5030175;28;20186;-80
2022/12/20 13:35:23;;;;;;;6.33;5.73;;;;;;;;;;5030010;28;20202;-80
2022/12/20 13:38:02;;;;;;;5.90;5.33;;;;;;;;;;5019434;28;20261;-80
2022/12/20 13:40:35;;;;;;;7.07;5.60;;;;;;;;;;5031579;28;20201;-80
2022/12/20 13:43:14;;;;;;;6.77;6.00;;;;;;;;;;5032903;28;20174;-80
2022/12/20 13:45:42;;;;;;;6.13;5.50;;;;;;;;;;5033791;28;20209;-81
2022/12/20 13:48:11;;;;;;;6.80;5.80;;;;;;;;;;5032549;28;20300;-81
2022/12/20 13:50:46;;;;;;;6.33;5.73;;;;;;;;;;5032228;28;20198;-80
2022/12/20 13:53:18;;;;;;;7.73;5.90;;;;;;;;;;5032501;28;20843;-80
2022/12/20 13:55:44;;;;;;;5.90;5.40;;;;;;;;;;5023055;28;20198;-80
2022/12/20 13:58:14;;;;;;;7.10;6.40;;;;;;;;;;5032417;28;20178;-81
2022/12/20 14:00:40;;;;;;;7.03;6.33;;;;;;;;;;5032911;28;20198;-81
2022/12/20 14:03:12;;;;;;;7.30;6.60;;;;;;;;;;5028103;28;20314;-80
2022/12/20 14:05:38;;;;;;;8.23;6.43;;;;;;;;;;5031406;28;20604;-80
2022/12/20 14:08:05;;;;;;;8.73;6.30;;;;;;;;;;5033555;28;20174;-80
2022/12/20 14:10:31;;;;;;;9.23;6.77;;;;;;;;;;5031523;28;20193;-81
2022/12/20 14:12:57;;;;;;;7.57;6.77;;;;;;;;;;5024000;28;20194;-81
2022/12/20 14:15:32;;;;;;;9.97;6.70;;;;;;;;;;5031956;28;20229;-80
2022/12/20 14:18:05;;;;;;;8.47;6.93;;;;;;;;;;5031531;28;20178;-80
2022/12/20 14:20:32;;;;;;;7.13;6.37;;;;;;;;;;5033254;28;20201;-80
2022/12/20 14:23:02;;;;;;;8.03;6.93;;;;;;;;;;5032917;28;20185;-80
2022/12/20 14:25:40;;;;;;;7.07;6.37;;;;;;;;;;5032589;28;20692;-80
2022/12/20 14:28:11;;;;;;;8.57;6.40;;;;;;;;;;5029991;28;20572;-81
2022/12/20 14:30:41;;;;;;;7.27;6.30;;;;;;;;;;5027314;28;21449;-81
2022/12/20 14:33:17;;;;;;;10.83;7.13;;;;;;;;;;5033942;28;20261;-80
2022/12/20 14:35:46;;;;;;;9.50;6.67;;;;;;;;;;5030880;28;20212;-81
2022/12/20 14:38:18;;;;;;;6.70;6.10;;;;;;;;;;5033184;28;20203;-80
2022/12/20 14:40:43;;;;;;;7.37;6.60;;;;;;;;;;5030919;28;21109;-80
2022/12/20 14:43:15;;;;;;;8.50;7.10;;;;;;;;;;5031726;28;20284;-80
2022/12/20 14:45:41;;;;;;;8.57;6.87;;;;;;;;;;5030661;28;20597;-80
2022/12/20 14:48:14;;;;;;;8.13;6.30;;;;;;;;;;5019978;28;20174;-80
2022/12/20 14:50:39;;;;;;;7.27;6.57;;;;;;;;;;5032887;28;20189;-80